Terminal Aerodrome Forecast
Issued by NWS St Louis, MO

Home | Current Version | Previous Version | Text Only | Print | Product List | Glossary On
Versions: 1 2 3 4 5 6 7 8 9 10 11 12 13 14 15 16 17 18
000
FTUS43 KLSX 182336
TAFCOU
TAF
KCOU 182336Z 1900/1924 30015G26KT P6SM OVC025
     FM190600 32010G18KT P6SM BKN025
     FM190800 32009KT P6SM BKN025
     FM191200 36009KT P6SM BKN030
     FM191500 36008KT P6SM SCT035=

USA.gov is the U.S. government's official web portal to all federal, state and local government web resources and services.